1872 Hurricane NOT_NAMED (1872250N12338)


IBTrACS version v04r00. Visit IBTrACS website for data access.
Please direct all questions to the IBTrACS Q and A forum

Storm track - Intensity - Wind Radii - Intensity Data - Source Data - All data

Summary Information

Storm ID 1872250N12338
Start Sep 5 18Z
Max Intensity 65 kt (Sep 12 18Z)
End Sep 15 06Z
ATCF IDs
Track status Best track data.

Storm track plot

Map of storm track

Intensity plots

Map of storm track

Radial wind information

No radial wind information for this storm


Position and Intensity Table

BASIN ISO_TIME_________ NATURE LAT LON MLC WIND
degrees north degrees east kts
NA 1872-09-05 18:00:00 TS 12.00 -22.50 30
NA 21:00:00 TS 12.24 -23.01 30
NA 1872-09-06 00:00:00 TS 12.50 -23.50 30
NA 03:00:00 TS 12.80 -23.96 30
NA 06:00:00 TS 13.10 -24.40 30
NA 09:00:00 TS 13.36 -24.85 30
NA 12:00:00 TS 13.60 -25.30 30
NA 15:00:00 TS 13.85 -25.75 32
NA 18:00:00 TS 14.10 -26.20 35
NA 21:00:00 TS 14.34 -26.65 35
NA 1872-09-07 00:00:00 TS 14.60 -27.10 35
NA 03:00:00 TS 14.88 -27.55 35
NA 06:00:00 TS 15.20 -28.00 35
NA 09:00:00 TS 15.58 -28.45 35
NA 12:00:00 TS 16.00 -28.90 35
NA 15:00:00 TS 16.40 -29.36 37
NA 18:00:00 TS 16.80 -29.80 40
NA 21:00:00 TS 17.20 -30.22 40
NA 1872-09-08 00:00:00 TS 17.60 -30.60 40
NA 03:00:00 TS 18.00 -30.92 40
NA 06:00:00 TS 18.40 -31.20 40
NA 09:00:00 TS 18.80 -31.51 40
NA 12:00:00 TS 19.20 -31.80 40
NA 15:00:00 TS 19.60 -32.07 42
NA 18:00:00 TS 20.00 -32.30 45
NA 21:00:00 TS 20.40 -32.51 45
NA 1872-09-09 00:00:00 TS 20.80 -32.70 45
NA 03:00:00 TS 21.20 -32.90 45
NA 06:00:00 TS 21.60 -33.10 45
NA 09:00:00 TS 22.00 -33.31 45
NA 12:00:00 TS 22.40 -33.50 45
NA 15:00:00 TS 22.80 -33.67 47
NA 18:00:00 TS 23.20 -33.80 50
NA 21:00:00 TS 23.60 -33.92 50
NA 1872-09-10 00:00:00 TS 24.00 -34.00 50
NA 03:00:00 TS 24.40 -34.05 50
NA 06:00:00 TS 24.80 -34.10 50
NA 09:00:00 TS 25.20 -34.20 50
NA 12:00:00 TS 25.60 -34.30 50
NA 15:00:00 TS 26.00 -34.36 50
NA 18:00:00 TS 26.40 -34.40 50
NA 21:00:00 TS 26.80 -34.46 50
NA 1872-09-11 00:00:00 TS 27.20 -34.50 50
NA 03:00:00 TS 27.60 -34.51 50
NA 06:00:00 TS 28.00 -34.50 50
NA 09:00:00 TS 28.40 -34.51 52
NA 12:00:00 TS 28.80 -34.50 55
NA 15:00:00 TS 29.20 -34.46 55
NA 18:00:00 TS 29.60 -34.40 55
NA 21:00:00 TS 30.00 -34.35 57
NA 1872-09-12 00:00:00 TS 30.40 -34.30 60
NA 03:00:00 TS 30.77 -34.26 60
NA 06:00:00 TS 31.20 -34.20 60
NA 09:00:00 TS 31.77 -34.11 60
NA 12:00:00 TS 32.40 -34.00 60
NA 15:00:00 TS 33.00 -33.91 62
NA 18:00:00 TS 33.60 -33.80 65
NA 21:00:00 TS 34.20 -33.62 65
NA 1872-09-13 00:00:00 TS 34.80 -33.40 65
NA 03:00:00 TS 35.40 -33.20 65
NA 06:00:00 TS 36.00 -33.00 65
NA 09:00:00 TS 36.60 -32.80 65
NA 12:00:00 TS 37.20 -32.60 65
NA 15:00:00 TS 37.79 -32.40 65
NA 18:00:00 TS 38.40 -32.20 65
NA 21:00:00 TS 39.05 -31.99 65
NA 1872-09-14 00:00:00 TS 39.70 -31.80 65
NA 03:00:00 TS 40.31 -31.64 65
NA 06:00:00 TS 40.90 -31.50 65
NA 09:00:00 TS 41.46 -31.34 62
NA 12:00:00 TS 42.00 -31.20 60
NA 15:00:00 TS 42.54 -31.08 57
NA 18:00:00 TS 43.10 -31.00 55
NA 21:00:00 TS 43.69 -30.95 52
NA 1872-09-15 00:00:00 TS 44.30 -30.90 50
NA 03:00:00 TS 44.90 -30.81 45
NA 06:00:00 TS 45.50 -30.70 40

Source Information

Agency Information
USA
TOKYO
CMA
HKO
NEWDELHI
REUNION
BOM
NADI
WELLINGTON
DS824
TD9636
TD9635
NEUMANN
MLC

All available IBTrACS Data

SEASON BASIN SUBBASIN ISO_TIME_________ NATURE LAT LON DIST2LAND LANDFALL IFLAG USA SSHS MLC LAT MLC LON MLC CLASS MLC WIND STORM SPEED STORM DIR
Year degrees north degrees east km km 1 degrees north degrees east kts kts degrees
1872 NA NA 1872-09-05 18:00:00 TS 12.00 -22.50 619 619 _____________O -1 12.00 -22.50 TD 30 11 295
1872 NA NA 21:00:00 TS 12.24 -23.01 657 652 _____________P -1 12.24 -23.01 TD 30 11 297
1872 NA NA 1872-09-06 00:00:00 TS 12.50 -23.50 693 693 _____________O -1 12.50 -23.50 TD 30 11 301
1872 NA NA 03:00:00 TS 12.80 -23.96 733 730 _____________P -1 12.80 -23.96 TD 30 11 304
1872 NA NA 06:00:00 TS 13.10 -24.40 766 766 _____________O -1 13.10 -24.40 TD 30 10 303
1872 NA NA 09:00:00 TS 13.36 -24.85 811 811 _____________P -1 13.36 -24.85 TD 30 10 300
1872 NA NA 12:00:00 TS 13.60 -25.30 850 850 _____________O -1 13.60 -25.30 TD 30 10 299
1872 NA NA 15:00:00 TS 13.85 -25.75 900 899 _____________P -1 13.85 -25.75 TD 32 10 300
1872 NA NA 18:00:00 TS 14.10 -26.20 939 939 _____________O -1 14.10 -26.20 TS 35 10 299
1872 NA NA 21:00:00 TS 14.34 -26.65 991 991 _____________P -1 14.34 -26.65 TS 35 10 300
1872 NA NA 1872-09-07 00:00:00 TS 14.60 -27.10 1033 1033 _____________O -1 14.60 -27.10 TS 35 10 302
1872 NA NA 03:00:00 TS 14.88 -27.55 1086 1086 _____________P -1 14.88 -27.55 TS 35 11 305
1872 NA NA 06:00:00 TS 15.20 -28.00 1129 1129 _____________O -1 15.20 -28.00 TS 35 11 309
1872 NA NA 09:00:00 TS 15.58 -28.45 1185 1185 _____________P -1 15.58 -28.45 TS 35 12 313
1872 NA NA 12:00:00 TS 16.00 -28.90 1231 1231 _____________O -1 16.00 -28.90 TS 35 12 313
1872 NA NA 15:00:00 TS 16.40 -29.36 1289 1289 _____________P -1 16.40 -29.36 TS 37 12 313
1872 NA NA 18:00:00 TS 16.80 -29.80 1337 1337 _____________O -1 16.80 -29.80 TS 40 12 314
1872 NA NA 21:00:00 TS 17.20 -30.22 1386 1386 _____________P -1 17.20 -30.22 TS 40 11 316
1872 NA NA 1872-09-08 00:00:00 TS 17.60 -30.60 1436 1436 _____________O -1 17.60 -30.60 TS 40 10 320
1872 NA NA 03:00:00 TS 18.00 -30.92 1476 1476 _____________P -1 18.00 -30.92 TS 40 10 324
1872 NA NA 06:00:00 TS 18.40 -31.20 1500 1500 _____________O -1 18.40 -31.20 TS 40 10 325
1872 NA NA 09:00:00 TS 18.80 -31.51 1522 1522 _____________P -1 18.80 -31.51 TS 40 10 325
1872 NA NA 12:00:00 TS 19.20 -31.80 1545 1543 _____________O -1 19.20 -31.80 TS 40 10 327
1872 NA NA 15:00:00 TS 19.60 -32.07 1570 1568 _____________P -1 19.60 -32.07 TS 42 9 329
1872 NA NA 18:00:00 TS 20.00 -32.30 1585 1584 _____________O -1 20.00 -32.30 TS 45 9 333
1872 NA NA 21:00:00 TS 20.40 -32.51 1602 1601 _____________P -1 20.40 -32.51 TS 45 9 335
1872 NA NA 1872-09-09 00:00:00 TS 20.80 -32.70 1620 1620 _____________O -1 20.80 -32.70 TS 45 9 335
1872 NA NA 03:00:00 TS 21.20 -32.90 1639 1639 _____________P -1 21.20 -32.90 TS 45 9 335
1872 NA NA 06:00:00 TS 21.60 -33.10 1660 1660 _____________O -1 21.60 -33.10 TS 45 9 335
1872 NA NA 09:00:00 TS 22.00 -33.31 1680 1680 _____________P -1 22.00 -33.31 TS 45 9 335
1872 NA NA 12:00:00 TS 22.40 -33.50 1699 1699 _____________O -1 22.40 -33.50 TS 45 9 337
1872 NA NA 15:00:00 TS 22.80 -33.67 1720 1720 _____________P -1 22.80 -33.67 TS 47 9 341
1872 NA NA 18:00:00 TS 23.20 -33.80 1731 1731 _____________O -1 23.20 -33.80 TS 50 8 344
1872 NA NA 21:00:00 TS 23.60 -33.92 1743 1743 _____________P -1 23.60 -33.92 TS 50 8 347
1872 NA NA 1872-09-10 00:00:00 TS 24.00 -34.00 1756 1756 _____________O -1 24.00 -34.00 TS 50 8 351
1872 NA NA 03:00:00 TS 24.40 -34.05 1770 1759 _____________P -1 24.40 -34.05 TS 50 8 354
1872 NA NA 06:00:00 TS 24.80 -34.10 1759 1753 _____________O -1 24.80 -34.10 TS 50 8 350
1872 NA NA 09:00:00 TS 25.20 -34.20 1757 1751 _____________P -1 25.20 -34.20 TS 50 8 347
1872 NA NA 12:00:00 TS 25.60 -34.30 1756 1748 _____________O -1 25.60 -34.30 TS 50 8 350
1872 NA NA 15:00:00 TS 26.00 -34.36 1756 1747 _____________P -1 26.00 -34.36 TS 50 8 354
1872 NA NA 18:00:00 TS 26.40 -34.40 1747 1741 _____________O -1 26.40 -34.40 TS 50 8 354
1872 NA NA 21:00:00 TS 26.80 -34.46 1749 1742 _____________P -1 26.80 -34.46 TS 50 8 354
1872 NA NA 1872-09-11 00:00:00 TS 27.20 -34.50 1742 1736 _____________O -1 27.20 -34.50 TS 50 8 357
1872 NA NA 03:00:00 TS 27.60 -34.51 1736 1732 _____________P -1 27.60 -34.51 TS 50 8 1
1872 NA NA 06:00:00 TS 28.00 -34.50 1732 1728 _____________O -1 28.00 -34.50 TS 50 8 1
1872 NA NA 09:00:00 TS 28.40 -34.51 1728 1726 _____________P -1 28.40 -34.51 TS 52 8 1
1872 NA NA 12:00:00 TS 28.80 -34.50 1726 1724 _____________O -1 28.80 -34.50 TS 55 8 3
1872 NA NA 15:00:00 TS 29.20 -34.46 1724 1714 _____________P -1 29.20 -34.46 TS 55 8 6
1872 NA NA 18:00:00 TS 29.60 -34.40 1714 1714 _____________O -1 29.60 -34.40 TS 55 8 7
1872 NA NA 21:00:00 TS 30.00 -34.35 1706 1706 _____________P -1 30.00 -34.35 TS 57 8 6
1872 NA NA 1872-09-12 00:00:00 TS 30.40 -34.30 1708 1708 _____________O -1 30.40 -34.30 TS 60 8 6
1872 NA NA 03:00:00 TS 30.77 -34.26 1711 1702 _____________P -1 30.77 -34.26 TS 60 8 6
1872 NA NA 06:00:00 TS 31.20 -34.20 1706 1701 _____________O -1 31.20 -34.20 TS 60 10 7
1872 NA NA 09:00:00 TS 31.77 -34.11 1705 1702 _____________P -1 31.77 -34.11 TS 60 12 8
1872 NA NA 12:00:00 TS 32.40 -34.00 1708 1708 _____________O -1 32.40 -34.00 TS 60 12 7
1872 NA NA 15:00:00 TS 33.00 -33.91 1713 1713 _____________P -1 33.00 -33.91 TS 62 12 8
1872 NA NA 18:00:00 TS 33.60 -33.80 1720 1717 _____________O -1 33.60 -33.80 HU 65 12 12
1872 NA NA 21:00:00 TS 34.20 -33.62 1722 1720 _____________P -1 34.20 -33.62 HU 65 12 15
1872 NA NA 1872-09-13 00:00:00 TS 34.80 -33.40 1726 1726 _____________O -1 34.80 -33.40 HU 65 13 16
1872 NA NA 03:00:00 TS 35.40 -33.20 1734 1734 _____________P -1 35.40 -33.20 HU 65 12 15
1872 NA NA 06:00:00 TS 36.00 -33.00 1744 1744 _____________O -1 36.00 -33.00 HU 65 12 15
1872 NA NA 09:00:00 TS 36.60 -32.80 1757 1757 _____________P -1 36.60 -32.80 HU 65 12 15
1872 NA NA 12:00:00 TS 37.20 -32.60 1773 1773 _____________O -1 37.20 -32.60 HU 65 12 15
1872 NA NA 15:00:00 TS 37.79 -32.40 1792 1792 _____________P -1 37.79 -32.40 HU 65 12 15
1872 NA NA 18:00:00 TS 38.40 -32.20 1813 1813 _____________O -1 38.40 -32.20 HU 65 13 14
1872 NA NA 21:00:00 TS 39.05 -31.99 1844 1837 _____________P -1 39.05 -31.99 HU 65 13 14
1872 NA NA 1872-09-14 00:00:00 TS 39.70 -31.80 1871 1842 _____________O -1 39.70 -31.80 HU 65 13 12
1872 NA NA 03:00:00 TS 40.31 -31.64 1849 1821 _____________P -1 40.31 -31.64 HU 65 12 11
1872 NA NA 06:00:00 TS 40.90 -31.50 1821 1801 _____________O -1 40.90 -31.50 HU 65 12 11
1872 NA NA 09:00:00 TS 41.46 -31.34 1802 1783 _____________P -1 41.46 -31.34 HU 62 11 12
1872 NA NA 12:00:00 TS 42.00 -31.20 1783 1766 _____________O -1 42.00 -31.20 TS 60 11 10
1872 NA NA 15:00:00 TS 42.54 -31.08 1766 1745 _____________P -1 42.54 -31.08 TS 57 11 8
1872 NA NA 18:00:00 TS 43.10 -31.00 1745 1719 _____________O -1 43.10 -31.00 TS 55 12 5
1872 NA NA 21:00:00 TS 43.69 -30.95 1727 1703 _____________P -1 43.69 -30.95 TS 52 12 3
1872 NA NA 1872-09-15 00:00:00 TS 44.30 -30.90 1703 1677 _____________O -1 44.30 -30.90 TS 50 12 4
1872 NA NA 03:00:00 TS 44.90 -30.81 1677 1633 _____________P -1 44.90 -30.81 TS 45 12 7
1872 NA NA 06:00:00 TS 45.50 -30.70 1633 _____________O -1 45.50 -30.70 TS 40 12 8